createdAt,value
2022-07-31T00:02:10.376Z,45.40
2022-07-31T00:04:40.529Z,45.60
2022-07-31T00:07:08.978Z,45.50
2022-07-31T00:09:53.866Z,45.50
2022-07-31T00:12:24.036Z,46.20
2022-07-31T00:14:52.519Z,47.10
2022-07-31T00:17:21.326Z,47.20
2022-07-31T00:19:51.185Z,47.30
2022-07-31T00:22:19.721Z,47.50
2022-07-31T00:24:48.162Z,47.90
2022-07-31T00:27:16.572Z,48.20
2022-07-31T00:29:45.024Z,48.20
2022-07-31T00:32:13.518Z,48.20
2022-07-31T00:34:42.456Z,48.20
2022-07-31T00:37:12.319Z,48.30
2022-07-31T00:39:40.907Z,48.50
2022-07-31T00:42:18.705Z,48.70
2022-07-31T00:44:51.127Z,48.80
2022-07-31T00:47:22.299Z,48.70
2022-07-31T00:49:54.746Z,48.80
2022-07-31T00:52:25.301Z,48.90
2022-07-31T00:54:53.834Z,49.00
2022-07-31T00:57:22.665Z,49.00
2022-07-31T00:59:51.693Z,49.50
2022-07-31T01:02:20.066Z,49.50
2022-07-31T01:04:48.581Z,49.70
2022-07-31T01:07:17.082Z,49.50
2022-07-31T01:09:50.198Z,49.40
2022-07-31T01:12:30.772Z,49.60
2022-07-31T01:15:06.293Z,50.30
2022-07-31T01:17:38.240Z,50.50
2022-07-31T01:20:08.908Z,50.40
2022-07-31T01:22:57.538Z,50.90
2022-07-31T01:25:46.356Z,51.60
2022-07-31T01:28:34.132Z,51.80
2022-07-31T01:31:26.048Z,51.70
2022-07-31T01:34:03.855Z,51.60
2022-07-31T01:36:35.852Z,51.30
2022-07-31T01:39:05.119Z,51.00
2022-07-31T01:41:42.431Z,51.10
2022-07-31T01:44:14.595Z,51.10
2022-07-31T01:46:47.510Z,50.90
2022-07-31T01:49:19.073Z,50.90
2022-07-31T01:51:49.746Z,50.90
2022-07-31T01:54:23.094Z,50.80
2022-07-31T01:56:52.227Z,50.70
2022-07-31T01:59:24.556Z,50.80
2022-07-31T02:01:55.836Z,50.90
2022-07-31T02:04:25.528Z,51.00
2022-07-31T02:06:55.252Z,50.90
2022-07-31T02:09:26.296Z,51.10
2022-07-31T02:11:57.079Z,51.10
2022-07-31T02:14:28.093Z,51.10
2022-07-31T02:16:59.564Z,51.00
2022-07-31T02:19:31.171Z,50.90
2022-07-31T02:22:01.108Z,51.20
2022-07-31T02:24:29.918Z,51.20
2022-07-31T02:26:59.981Z,51.40
2022-07-31T02:29:33.657Z,51.50
2022-07-31T02:32:05.713Z,51.50
2022-07-31T02:34:37.398Z,51.60
2022-07-31T02:37:07.284Z,51.70
2022-07-31T02:39:39.089Z,51.80
2022-07-31T02:42:08.846Z,51.80
2022-07-31T02:44:39.889Z,52.00
2022-07-31T02:47:10.386Z,52.00
2022-07-31T02:49:39.898Z,52.30
2022-07-31T02:52:10.086Z,52.60
2022-07-31T02:54:40.805Z,52.80
2022-07-31T02:57:10.403Z,52.80
2022-07-31T02:59:40.821Z,52.80
2022-07-31T03:02:11.225Z,52.70
2022-07-31T03:04:40.323Z,52.50
2022-07-31T03:07:09.990Z,52.40
2022-07-31T03:09:38.724Z,52.30
2022-07-31T03:12:08.839Z,52.10
2022-07-31T03:14:38.152Z,52.00
2022-07-31T03:17:09.894Z,52.10
2022-07-31T03:19:40.370Z,52.00
2022-07-31T03:22:13.649Z,51.90
2022-07-31T03:24:45.766Z,51.80
2022-07-31T03:27:15.420Z,51.90
2022-07-31T03:29:44.038Z,52.00
2022-07-31T03:32:12.633Z,52.00
2022-07-31T03:34:43.133Z,52.00
2022-07-31T03:37:11.569Z,52.00
2022-07-31T03:39:40.257Z,51.90
2022-07-31T03:42:12.983Z,51.70
2022-07-31T03:44:48.819Z,51.70
2022-07-31T03:47:17.577Z,51.70
2022-07-31T03:49:48.622Z,51.60
2022-07-31T03:52:17.603Z,51.20
2022-07-31T03:54:46.207Z,51.20
2022-07-31T03:57:15.659Z,51.30
2022-07-31T03:59:48.840Z,51.50
2022-07-31T04:02:18.891Z,51.40
2022-07-31T04:04:48.999Z,51.20
2022-07-31T04:07:17.864Z,51.40
2022-07-31T04:09:46.365Z,51.30
2022-07-31T04:12:14.792Z,51.50
2022-07-31T04:14:43.348Z,51.60
2022-07-31T04:17:11.802Z,51.90
2022-07-31T04:19:40.446Z,52.00
2022-07-31T04:22:10.304Z,52.10
2022-07-31T04:24:38.810Z,51.90
2022-07-31T04:27:12.587Z,52.00
2022-07-31T04:29:41.394Z,52.00
2022-07-31T04:32:09.829Z,52.10
2022-07-31T04:34:38.808Z,52.00
2022-07-31T04:37:07.411Z,51.80
2022-07-31T04:39:37.538Z,51.80
2022-07-31T04:42:11.253Z,51.40
2022-07-31T04:44:40.209Z,51.00
2022-07-31T04:47:09.513Z,50.70
2022-07-31T04:49:38.131Z,50.40
2022-07-31T04:52:07.782Z,50.10
2022-07-31T04:54:39.500Z,49.90
2022-07-31T04:57:07.926Z,49.70
2022-07-31T04:59:58.094Z,49.90
2022-07-31T05:02:24.935Z,50.00
2022-07-31T05:04:56.652Z,50.20
2022-07-31T05:07:28.629Z,50.30
2022-07-31T05:09:59.576Z,50.30
2022-07-31T05:12:28.342Z,50.10
2022-07-31T05:14:56.836Z,50.10
2022-07-31T05:17:25.238Z,50.20
2022-07-31T05:19:53.824Z,50.00
2022-07-31T05:22:22.225Z,49.60
2022-07-31T05:24:50.677Z,49.40
2022-07-31T05:27:20.511Z,48.90
2022-07-31T05:29:48.982Z,48.90
2022-07-31T05:32:18.049Z,48.90
2022-07-31T05:34:46.720Z,48.60
2022-07-31T05:37:15.158Z,48.20
2022-07-31T05:39:43.609Z,48.00
2022-07-31T05:42:12.152Z,47.80
2022-07-31T05:44:42.156Z,47.60
2022-07-31T05:47:10.634Z,47.50
2022-07-31T05:49:39.113Z,47.30
2022-07-31T05:52:07.580Z,46.90
2022-07-31T05:54:36.204Z,46.90
2022-07-31T05:57:04.922Z,46.30
2022-07-31T05:59:34.848Z,45.80
2022-07-31T06:02:05.192Z,45.30
2022-07-31T06:04:33.944Z,45.50
2022-07-31T06:07:02.361Z,44.70
2022-07-31T06:09:31.746Z,44.50
2022-07-31T06:12:00.359Z,44.10
2022-07-31T06:14:29.320Z,44.30
2022-07-31T06:16:57.791Z,43.90
2022-07-31T06:19:27.715Z,42.10
2022-07-31T06:21:56.102Z,42.40
2022-07-31T06:24:25.978Z,41.60
2022-07-31T06:26:58.881Z,40.60
2022-07-31T06:29:40.336Z,39.90
2022-07-31T06:32:10.532Z,39.50
2022-07-31T06:34:41.473Z,38.60
2022-07-31T06:37:10.148Z,38.30
2022-07-31T06:39:55.870Z,37.60
2022-07-31T06:42:27.103Z,37.30
2022-07-31T06:44:56.020Z,37.10
2022-07-31T06:47:27.057Z,36.60
2022-07-31T06:49:57.653Z,36.80
2022-07-31T06:52:26.129Z,35.30
2022-07-31T06:54:54.546Z,34.90
2022-07-31T06:57:23.118Z,34.90
2022-07-31T06:59:51.607Z,33.90
2022-07-31T07:02:20.011Z,33.10
2022-07-31T07:05:05.241Z,33.40
2022-07-31T07:07:38.424Z,32.50
2022-07-31T07:10:08.059Z,31.40
2022-07-31T07:12:36.549Z,30.90
2022-07-31T07:15:06.064Z,30.80
2022-07-31T07:17:34.615Z,29.90
2022-07-31T07:20:03.178Z,30.70
2022-07-31T07:22:32.693Z,30.90
2022-07-31T07:25:02.870Z,30.50
2022-07-31T07:27:31.329Z,30.00
2022-07-31T07:30:01.022Z,29.30
2022-07-31T07:32:29.439Z,28.90
2022-07-31T07:35:00.026Z,28.60
2022-07-31T07:37:30.143Z,27.20
2022-07-31T07:40:02.592Z,25.40
2022-07-31T07:42:34.079Z,25.40
2022-07-31T07:45:07.878Z,23.70
2022-07-31T07:47:54.137Z,24.30
2022-07-31T07:50:26.780Z,23.00
2022-07-31T07:52:58.224Z,23.40
2022-07-31T07:55:27.456Z,23.40
2022-07-31T07:58:11.750Z,22.30
2022-07-31T08:00:40.909Z,22.40
2022-07-31T08:03:48.719Z,22.50
2022-07-31T08:05:58.436Z,22.60
2022-07-31T08:08:26.865Z,22.60
2022-07-31T08:10:55.284Z,21.50
2022-07-31T08:13:25.097Z,20.00
2022-07-31T08:15:53.518Z,20.10
2022-07-31T08:18:21.916Z,19.50
2022-07-31T08:20:55.879Z,19.30
2022-07-31T08:23:24.317Z,18.90
2022-07-31T08:25:53.437Z,19.10
2022-07-31T08:28:27.495Z,18.70
2022-07-31T08:30:55.962Z,18.20
2022-07-31T08:33:24.387Z,17.70
2022-07-31T08:35:52.866Z,18.00
2022-07-31T08:38:21.446Z,17.20
2022-07-31T08:40:50.178Z,16.80
2022-07-31T08:44:00.618Z,14.00
2022-07-31T08:46:13.261Z,13.70
2022-07-31T08:48:43.247Z,11.20
2022-07-31T08:51:13.984Z,11.50
2022-07-31T08:53:45.442Z,10.80
2022-07-31T08:56:14.628Z,10.60
2022-07-31T08:58:43.049Z,10.70
2022-07-31T09:01:15.007Z,10.30
2022-07-31T09:03:43.678Z,10.40
2022-07-31T09:06:12.590Z,9.00
2022-07-31T09:08:41.146Z,9.00
2022-07-31T09:11:12.655Z,10.10
2022-07-31T09:13:41.783Z,8.80
2022-07-31T09:16:30.604Z,9.00
2022-07-31T09:19:01.381Z,8.30
2022-07-31T09:21:41.087Z,10.10
2022-07-31T09:24:10.420Z,8.70
2022-07-31T09:26:40.977Z,8.50
2022-07-31T09:29:12.620Z,7.90
2022-07-31T09:31:43.122Z,7.60
2022-07-31T09:34:11.632Z,8.00
2022-07-31T09:36:40.518Z,8.40
2022-07-31T09:39:26.807Z,8.50
2022-07-31T09:42:01.776Z,8.70
2022-07-31T09:44:47.218Z,9.20
2022-07-31T09:47:26.975Z,9.10
2022-07-31T09:49:58.532Z,8.70
2022-07-31T09:52:29.204Z,9.40
2022-07-31T09:55:15.955Z,9.80
2022-07-31T09:57:55.140Z,10.00
2022-07-31T10:00:24.712Z,9.50
2022-07-31T10:02:56.724Z,9.50
2022-07-31T10:05:28.362Z,10.10
2022-07-31T10:08:00.580Z,9.30
2022-07-31T10:10:31.897Z,9.30
2022-07-31T10:13:09.291Z,8.80
2022-07-31T10:15:40.881Z,8.90
2022-07-31T10:18:11.484Z,8.20
2022-07-31T10:20:44.012Z,8.20
2022-07-31T10:23:17.921Z,7.50
2022-07-31T10:25:53.829Z,7.50
2022-07-31T10:28:24.075Z,6.90
2022-07-31T10:30:53.104Z,6.30
2022-07-31T10:33:43.157Z,6.20
2022-07-31T10:36:19.566Z,6.40
2022-07-31T10:38:59.738Z,5.40
2022-07-31T10:41:43.255Z,5.20
2022-07-31T10:44:17.977Z,5.30
2022-07-31T10:46:46.475Z,5.70
2022-07-31T10:49:16.465Z,5.80
2022-07-31T10:51:48.814Z,6.40
2022-07-31T10:54:17.479Z,7.40
2022-07-31T10:56:48.602Z,5.50
2022-07-31T10:59:17.205Z,6.60
2022-07-31T11:01:52.614Z,6.50
2022-07-31T11:04:32.006Z,6.50
2022-07-31T11:07:01.239Z,6.60
2022-07-31T11:09:31.302Z,6.40
2022-07-31T11:11:59.733Z,6.60
2022-07-31T11:14:36.197Z,7.00
2022-07-31T11:17:05.250Z,6.70
2022-07-31T11:19:43.073Z,6.30
2022-07-31T11:22:31.807Z,6.20
2022-07-31T11:25:01.779Z,6.00
2022-07-31T11:27:33.876Z,5.80
2022-07-31T11:30:12.818Z,6.60
2022-07-31T11:32:42.581Z,7.90
2022-07-31T11:35:12.392Z,6.90
2022-07-31T11:37:56.610Z,6.80
2022-07-31T11:40:27.792Z,6.90
2022-07-31T11:43:25.380Z,6.70
2022-07-31T11:45:51.375Z,6.70
2022-07-31T11:48:22.241Z,7.40
2022-07-31T11:50:52.457Z,7.50
2022-07-31T11:53:21.653Z,7.30
2022-07-31T11:55:53.055Z,8.30
2022-07-31T11:58:24.742Z,8.60
2022-07-31T12:00:55.486Z,9.10
2022-07-31T12:03:26.644Z,9.50
2022-07-31T12:05:56.472Z,8.90
2022-07-31T12:08:27.112Z,8.90
2022-07-31T12:10:57.169Z,9.20
2022-07-31T12:13:27.103Z,8.90
2022-07-31T12:16:01.093Z,8.70
2022-07-31T12:18:34.607Z,7.50
2022-07-31T12:21:06.532Z,7.80
2022-07-31T12:23:43.077Z,8.20
2022-07-31T12:26:24.097Z,8.60
2022-07-31T12:29:01.211Z,7.80
2022-07-31T12:31:31.607Z,7.00
2022-07-31T12:34:00.167Z,6.20
2022-07-31T12:36:30.029Z,6.90
2022-07-31T12:39:03.425Z,6.50
2022-07-31T12:41:41.906Z,7.40
2022-07-31T12:44:14.821Z,7.70
2022-07-31T12:46:47.412Z,7.60
2022-07-31T12:49:16.699Z,7.50
2022-07-31T12:51:47.238Z,7.90
2022-07-31T12:54:17.491Z,8.00
2022-07-31T12:56:47.662Z,8.10
2022-07-31T12:59:16.232Z,7.70
2022-07-31T13:01:44.755Z,8.20
2022-07-31T13:04:18.550Z,8.90
2022-07-31T13:06:51.668Z,8.90
2022-07-31T13:09:21.149Z,8.90
2022-07-31T13:11:53.360Z,8.50
2022-07-31T13:14:26.495Z,8.60
2022-07-31T13:16:57.415Z,7.90
2022-07-31T13:19:25.885Z,7.90
2022-07-31T13:21:56.974Z,7.90
2022-07-31T13:24:26.033Z,7.90
2022-07-31T13:26:54.535Z,7.90
2022-07-31T13:29:23.842Z,8.60
2022-07-31T13:31:52.986Z,8.70
2022-07-31T13:34:21.425Z,9.10
2022-07-31T13:36:49.875Z,10.20
2022-07-31T13:39:19.772Z,9.70
2022-07-31T13:41:48.286Z,8.70
2022-07-31T13:44:17.088Z,8.40
2022-07-31T13:46:46.687Z,8.40
2022-07-31T13:49:15.731Z,8.60
2022-07-31T13:51:44.456Z,8.10
2022-07-31T13:54:13.608Z,8.50
2022-07-31T13:56:43.841Z,8.10
2022-07-31T13:59:14.158Z,7.70
2022-07-31T14:02:02.914Z,8.50
2022-07-31T14:04:38.400Z,8.40
2022-07-31T14:07:09.262Z,8.60
2022-07-31T14:09:37.973Z,8.30
2022-07-31T14:12:09.638Z,7.30
2022-07-31T14:14:40.098Z,8.30
2022-07-31T14:17:08.566Z,8.40
2022-07-31T14:19:44.262Z,7.50
2022-07-31T14:22:14.463Z,7.50
2022-07-31T14:24:49.943Z,7.10
2022-07-31T14:27:21.936Z,7.60
2022-07-31T14:29:50.474Z,7.70
2022-07-31T14:32:19.696Z,8.00
2022-07-31T14:34:48.709Z,7.20
2022-07-31T14:37:17.328Z,6.60
2022-07-31T14:39:45.795Z,7.50
2022-07-31T14:42:14.382Z,7.80
2022-07-31T14:44:44.374Z,8.30
2022-07-31T14:47:13.950Z,8.80
2022-07-31T14:50:07.986Z,8.30
2022-07-31T14:52:32.437Z,8.10
2022-07-31T14:55:01.962Z,6.90
2022-07-31T14:57:31.558Z,6.60
2022-07-31T15:00:01.671Z,5.80
2022-07-31T15:02:30.171Z,6.30
2022-07-31T15:04:58.605Z,6.60
2022-07-31T15:07:48.142Z,7.20
2022-07-31T15:10:16.997Z,6.80
2022-07-31T15:12:45.525Z,6.50
2022-07-31T15:15:15.405Z,6.80
2022-07-31T15:17:44.072Z,6.80
2022-07-31T15:20:13.988Z,6.30
2022-07-31T15:22:42.469Z,5.90
2022-07-31T15:25:11.677Z,6.00
2022-07-31T15:27:40.129Z,6.60
2022-07-31T15:30:10.063Z,6.90
2022-07-31T15:32:43.406Z,6.80
2022-07-31T15:35:14.789Z,6.40
2022-07-31T15:37:45.361Z,6.70
2022-07-31T15:40:16.991Z,7.20
2022-07-31T15:42:47.646Z,7.30
2022-07-31T15:45:18.430Z,7.50
2022-07-31T15:47:49.659Z,7.40
2022-07-31T15:50:20.665Z,7.50
2022-07-31T15:52:50.175Z,7.80
2022-07-31T15:55:19.375Z,7.50
2022-07-31T15:57:47.880Z,6.90
2022-07-31T16:00:17.365Z,7.80
2022-07-31T16:02:47.355Z,6.80
2022-07-31T16:05:21.416Z,7.10
2022-07-31T16:08:28.663Z,7.30
2022-07-31T16:10:39.586Z,7.00
2022-07-31T16:13:08.846Z,7.10
2022-07-31T16:15:37.432Z,7.50
2022-07-31T16:18:09.163Z,7.80
2022-07-31T16:20:46.655Z,8.30
2022-07-31T16:23:15.089Z,8.30
2022-07-31T16:25:43.898Z,8.30
2022-07-31T16:28:12.357Z,8.20
2022-07-31T16:30:42.343Z,8.40
2022-07-31T16:33:12.434Z,8.50
2022-07-31T16:35:40.982Z,8.00
2022-07-31T16:38:09.485Z,8.00
2022-07-31T16:40:38.005Z,8.10
2022-07-31T16:43:50.610Z,7.90
2022-07-31T16:45:56.766Z,8.30
2022-07-31T16:48:27.225Z,8.00
2022-07-31T16:50:55.673Z,8.10
2022-07-31T16:54:11.076Z,8.20
2022-07-31T16:56:13.833Z,8.80
2022-07-31T16:58:43.848Z,8.20
2022-07-31T17:01:57.078Z,8.70
2022-07-31T17:04:04.444Z,7.90
2022-07-31T17:06:36.200Z,7.80
2022-07-31T17:09:16.048Z,7.40
2022-07-31T17:11:48.697Z,7.50
2022-07-31T17:14:18.635Z,8.00
2022-07-31T17:16:49.529Z,8.70
2022-07-31T17:19:41.812Z,9.20
2022-07-31T17:22:11.755Z,9.60
2022-07-31T17:24:50.492Z,9.70
2022-07-31T17:27:20.822Z,10.00
2022-07-31T17:29:49.691Z,10.10
2022-07-31T17:32:18.356Z,10.50
2022-07-31T17:34:49.545Z,10.50
2022-07-31T17:37:18.253Z,11.20
2022-07-31T17:39:46.982Z,11.10
2022-07-31T17:42:15.522Z,12.00
2022-07-31T17:44:49.808Z,12.40
2022-07-31T17:47:25.825Z,12.80
2022-07-31T17:49:55.746Z,13.70
2022-07-31T17:52:24.409Z,14.10
2022-07-31T17:54:53.688Z,15.30
2022-07-31T17:57:23.751Z,15.20
2022-07-31T17:59:53.461Z,15.60
2022-07-31T18:02:21.971Z,15.80
2022-07-31T18:04:50.435Z,15.80
2022-07-31T18:07:21.983Z,15.60
2022-07-31T18:09:50.434Z,16.20
2022-07-31T18:12:18.989Z,16.40
2022-07-31T18:14:47.810Z,16.40
2022-07-31T18:17:16.219Z,17.30
2022-07-31T18:19:44.662Z,17.60
2022-07-31T18:22:13.126Z,18.50
2022-07-31T18:24:42.938Z,19.00
2022-07-31T18:27:11.352Z,18.70
2022-07-31T18:29:39.828Z,19.20
2022-07-31T18:32:09.287Z,19.60
2022-07-31T18:34:37.722Z,19.60
2022-07-31T18:37:06.162Z,19.60
2022-07-31T18:39:34.571Z,19.80
2022-07-31T18:42:18.771Z,19.60
2022-07-31T18:44:47.530Z,19.90
2022-07-31T18:47:15.954Z,20.60
2022-07-31T18:50:59.711Z,21.20
2022-07-31T18:52:32.775Z,21.60
2022-07-31T18:55:01.175Z,21.90
2022-07-31T18:57:31.093Z,22.00
2022-07-31T18:59:59.518Z,23.10
2022-07-31T19:02:28.489Z,22.10
2022-07-31T19:04:57.125Z,22.00
2022-07-31T19:07:25.754Z,22.00
2022-07-31T19:09:54.191Z,22.00
2022-07-31T19:12:23.221Z,22.70
2022-07-31T19:14:53.935Z,23.40
2022-07-31T19:17:22.574Z,23.70
2022-07-31T19:19:55.034Z,23.80
2022-07-31T19:22:29.985Z,23.40
2022-07-31T19:24:58.373Z,23.80
2022-07-31T19:27:48.072Z,24.30
2022-07-31T19:30:17.249Z,24.60
2022-07-31T19:32:45.658Z,24.70
2022-07-31T19:35:14.106Z,24.60
2022-07-31T19:37:42.621Z,24.80
2022-07-31T19:40:12.509Z,24.60
2022-07-31T19:42:40.937Z,24.70
2022-07-31T19:45:10.230Z,25.00
2022-07-31T19:47:41.148Z,24.90
2022-07-31T19:50:11.543Z,25.30
2022-07-31T19:52:40.392Z,24.70
2022-07-31T19:55:15.190Z,24.90
2022-07-31T19:57:44.425Z,26.30
2022-07-31T20:00:14.513Z,25.50
2022-07-31T20:02:44.508Z,25.30
2022-07-31T20:05:13.509Z,25.60
2022-07-31T20:07:41.996Z,26.10
2022-07-31T20:10:11.617Z,26.20
2022-07-31T20:12:40.873Z,26.00
2022-07-31T20:15:11.499Z,25.70
2022-07-31T20:17:40.241Z,25.80
2022-07-31T20:20:16.074Z,26.30
2022-07-31T20:22:44.820Z,26.60
2022-07-31T20:25:19.865Z,26.70
2022-07-31T20:27:50.097Z,26.70
2022-07-31T20:30:22.078Z,27.40
2022-07-31T20:32:51.566Z,27.50
2022-07-31T20:35:31.218Z,27.80
2022-07-31T20:38:15.615Z,28.00
2022-07-31T20:40:53.045Z,28.00
2022-07-31T20:43:25.072Z,28.30
2022-07-31T20:45:57.240Z,28.10
2022-07-31T20:48:31.598Z,28.10
2022-07-31T20:51:04.193Z,28.10
2022-07-31T20:53:33.729Z,28.30
2022-07-31T20:56:02.189Z,28.60
2022-07-31T20:58:31.032Z,28.80
2022-07-31T21:00:59.609Z,29.50
2022-07-31T21:03:28.936Z,29.50
2022-07-31T21:05:58.103Z,29.50
2022-07-31T21:08:28.050Z,29.80
2022-07-31T21:10:56.945Z,29.70
2022-07-31T21:13:29.563Z,29.70
2022-07-31T21:15:58.438Z,30.20
2022-07-31T21:18:28.701Z,30.60
2022-07-31T21:20:59.062Z,30.80
2022-07-31T21:23:29.325Z,31.40
2022-07-31T21:25:59.905Z,31.80
2022-07-31T21:28:29.632Z,32.30
2022-07-31T21:30:58.776Z,32.20
2022-07-31T21:33:28.801Z,32.60
2022-07-31T21:35:57.774Z,32.60
2022-07-31T21:38:26.538Z,32.60
2022-07-31T21:40:56.996Z,33.00
2022-07-31T21:43:30.411Z,33.10
2022-07-31T21:46:06.906Z,33.10
2022-07-31T21:48:38.211Z,33.40
2022-07-31T21:51:10.029Z,33.50
2022-07-31T21:53:38.469Z,33.70
2022-07-31T21:56:12.030Z,33.80
2022-07-31T21:58:40.706Z,33.80
2022-07-31T22:01:09.212Z,33.90
2022-07-31T22:03:37.826Z,33.80
2022-07-31T22:06:26.320Z,34.00
2022-07-31T22:08:54.969Z,34.20
2022-07-31T22:11:25.495Z,34.20
2022-07-31T22:13:53.914Z,34.50
2022-07-31T22:16:22.499Z,34.50
2022-07-31T22:18:52.521Z,34.80
2022-07-31T22:21:21.350Z,35.00
2022-07-31T22:23:50.460Z,35.10
2022-07-31T22:26:19.426Z,35.20
2022-07-31T22:28:49.913Z,35.30
2022-07-31T22:31:18.907Z,35.50
2022-07-31T22:33:47.568Z,35.70
2022-07-31T22:36:16.398Z,35.70
2022-07-31T22:38:46.094Z,35.80
2022-07-31T22:41:15.183Z,36.00
2022-07-31T22:44:13.465Z,36.00
2022-07-31T22:46:34.283Z,36.00
2022-07-31T22:49:05.964Z,36.00
2022-07-31T22:51:38.415Z,36.10
2022-07-31T22:54:07.375Z,36.10
2022-07-31T22:56:35.791Z,36.30
2022-07-31T22:59:04.604Z,36.30
2022-07-31T23:01:34.601Z,36.30
2022-07-31T23:04:03.116Z,36.50
2022-07-31T23:06:32.800Z,36.60
2022-07-31T23:09:02.809Z,36.40
2022-07-31T23:11:31.420Z,36.70
2022-07-31T23:13:59.870Z,36.70
2022-07-31T23:16:28.902Z,36.70
2022-07-31T23:18:58.999Z,37.10
2022-07-31T23:21:27.647Z,37.10
2022-07-31T23:23:56.122Z,37.00
2022-07-31T23:26:26.755Z,36.90
2022-07-31T23:28:56.695Z,36.90
2022-07-31T23:31:26.031Z,37.00
2022-07-31T23:33:54.770Z,37.10
2022-07-31T23:36:25.176Z,37.00
2022-07-31T23:38:54.173Z,37.30
2022-07-31T23:41:36.655Z,37.10
2022-07-31T23:44:05.834Z,37.10
2022-07-31T23:46:40.860Z,37.30
2022-07-31T23:49:10.269Z,37.30
2022-07-31T23:51:40.153Z,37.60
2022-07-31T23:54:08.843Z,37.60
2022-07-31T23:56:37.418Z,37.80
2022-07-31T23:59:05.835Z,37.90
